createdAt,value
2022-11-13T00:02:34.493Z,11.61
2022-11-13T00:05:20.253Z,11.66
2022-11-13T00:08:06.264Z,11.74
2022-11-13T00:10:52.332Z,11.43
2022-11-13T00:13:38.125Z,11.50
2022-11-13T00:16:24.431Z,11.63
2022-11-13T00:19:10.314Z,11.69
2022-11-13T00:21:57.612Z,11.62
2022-11-13T00:24:43.604Z,11.73
2022-11-13T00:27:31.600Z,11.77
2022-11-13T00:30:19.473Z,11.93
2022-11-13T00:33:05.414Z,12.00
2022-11-13T00:35:51.060Z,12.00
2022-11-13T00:38:37.091Z,11.94
2022-11-13T00:41:24.293Z,11.96
2022-11-13T00:44:09.748Z,12.05
2022-11-13T00:46:55.573Z,12.02
2022-11-13T00:49:41.476Z,11.71
2022-11-13T00:52:27.384Z,11.57
2022-11-13T00:55:13.602Z,11.69
2022-11-13T00:57:59.402Z,11.78
2022-11-13T01:00:47.049Z,11.89
2022-11-13T01:03:32.947Z,11.81
2022-11-13T01:06:28.001Z,11.80
2022-11-13T01:09:14.232Z,11.71
2022-11-13T01:12:00.412Z,11.63
2022-11-13T01:14:47.486Z,11.51
2022-11-13T01:17:33.568Z,11.64
2022-11-13T01:20:20.630Z,11.61
2022-11-13T01:23:06.420Z,11.80
2022-11-13T01:25:52.957Z,11.61
2022-11-13T01:28:39.566Z,11.26
2022-11-13T01:31:28.559Z,11.07
2022-11-13T01:34:14.849Z,11.12
2022-11-13T01:37:00.624Z,10.94
2022-11-13T01:39:46.836Z,11.02
2022-11-13T01:42:34.363Z,11.19
2022-11-13T01:46:14.882Z,11.51
2022-11-13T01:49:10.066Z,11.69
2022-11-13T01:52:04.812Z,11.75
2022-11-13T01:54:57.369Z,11.92
2022-11-13T01:57:43.360Z,12.05
2022-11-13T02:00:29.377Z,12.00
2022-11-13T02:03:14.990Z,11.87
2022-11-13T02:06:01.514Z,12.01
2022-11-13T02:08:49.188Z,12.08
2022-11-13T02:11:35.048Z,12.01
2022-11-13T02:14:23.702Z,11.91
2022-11-13T02:17:15.555Z,11.66
2022-11-13T02:20:04.293Z,11.46
2022-11-13T02:23:01.219Z,11.14
2022-11-13T02:25:50.640Z,10.77
2022-11-13T02:28:36.904Z,10.91
2022-11-13T02:31:23.007Z,10.85
2022-11-13T02:34:08.795Z,10.73
2022-11-13T02:36:55.083Z,10.74
2022-11-13T02:39:41.824Z,10.71
2022-11-13T02:42:28.105Z,10.54
2022-11-13T02:45:13.925Z,10.50
2022-11-13T02:48:01.300Z,10.41
2022-11-13T02:50:47.456Z,10.32
2022-11-13T02:53:33.101Z,10.28
2022-11-13T02:56:19.131Z,10.28
2022-11-13T02:59:04.942Z,10.29
2022-11-13T03:01:50.476Z,10.49
2022-11-13T03:05:05.378Z,10.59
2022-11-13T03:07:42.522Z,11.05
2022-11-13T03:10:28.601Z,11.13
2022-11-13T03:13:14.349Z,10.85
2022-11-13T03:16:15.687Z,11.02
2022-11-13T03:19:02.002Z,11.05
2022-11-13T03:21:47.911Z,11.18
2022-11-13T03:24:34.061Z,11.29
2022-11-13T03:27:21.120Z,11.20
2022-11-13T03:30:07.889Z,11.18
2022-11-13T03:32:56.001Z,11.06
2022-11-13T03:35:46.963Z,11.19
2022-11-13T03:38:34.478Z,11.21
2022-11-13T03:41:21.745Z,11.33
2022-11-13T03:44:07.972Z,11.30
2022-11-13T03:46:53.427Z,11.23
2022-11-13T03:49:42.313Z,11.21
2022-11-13T03:52:28.693Z,11.14
2022-11-13T03:55:14.642Z,11.26
2022-11-13T03:58:01.390Z,11.47
2022-11-13T04:00:48.085Z,11.32
2022-11-13T04:03:34.066Z,11.26
2022-11-13T04:06:19.848Z,11.01
2022-11-13T04:09:05.652Z,11.08
2022-11-13T04:11:51.475Z,10.98
2022-11-13T04:14:37.050Z,11.02
2022-11-13T04:17:23.084Z,10.94
2022-11-13T04:20:12.309Z,10.93
2022-11-13T04:22:58.107Z,10.99
2022-11-13T04:25:44.552Z,10.92
2022-11-13T04:28:30.719Z,10.71
2022-11-13T04:31:17.048Z,10.65
2022-11-13T04:34:02.529Z,10.77
2022-11-13T04:36:48.697Z,11.03
2022-11-13T04:39:34.692Z,11.35
2022-11-13T04:42:39.566Z,11.31
2022-11-13T04:45:27.847Z,11.37
2022-11-13T04:48:14.071Z,11.18
2022-11-13T04:51:00.064Z,10.95
2022-11-13T04:53:46.532Z,10.96
2022-11-13T04:56:32.498Z,10.86
2022-11-13T04:59:18.734Z,10.88
2022-11-13T05:02:04.977Z,10.74
2022-11-13T05:04:51.349Z,10.90
2022-11-13T05:07:37.449Z,11.01
2022-11-13T05:10:24.147Z,10.93
2022-11-13T05:13:10.022Z,10.84
2022-11-13T05:16:07.717Z,11.02
2022-11-13T05:18:53.688Z,11.03
2022-11-13T05:21:40.524Z,11.06
2022-11-13T05:24:26.234Z,10.92
2022-11-13T05:27:17.001Z,10.89
2022-11-13T05:30:04.360Z,11.17
2022-11-13T05:32:50.655Z,11.15
2022-11-13T05:35:36.443Z,11.17
2022-11-13T05:38:22.376Z,11.01
2022-11-13T05:41:11.190Z,10.78
2022-11-13T05:43:59.728Z,10.63
2022-11-13T05:46:45.547Z,10.59
2022-11-13T05:49:31.761Z,10.66
2022-11-13T05:52:17.495Z,10.57
2022-11-13T05:55:04.390Z,10.47
2022-11-13T05:57:50.009Z,10.46
2022-11-13T06:00:36.030Z,10.48
2022-11-13T06:03:21.689Z,10.65
2022-11-13T06:06:09.887Z,10.89
2022-11-13T06:08:57.240Z,10.85
2022-11-13T06:11:42.893Z,10.92
2022-11-13T06:14:28.902Z,10.99
2022-11-13T06:17:14.839Z,11.01
2022-11-13T06:20:00.887Z,10.98
2022-11-13T06:22:46.941Z,11.09
2022-11-13T06:25:33.243Z,11.18
2022-11-13T06:28:18.994Z,10.99
2022-11-13T06:31:07.947Z,11.05
2022-11-13T06:33:55.110Z,11.02
2022-11-13T06:36:41.083Z,10.89
2022-11-13T06:39:27.707Z,11.04
2022-11-13T06:42:13.951Z,11.11
2022-11-13T06:45:00.029Z,11.12
2022-11-13T06:47:46.188Z,11.16
2022-11-13T06:50:32.175Z,11.31
2022-11-13T06:53:18.142Z,11.37
2022-11-13T06:56:06.636Z,11.46
2022-11-13T06:58:54.551Z,11.60
2022-11-13T07:01:40.349Z,11.73
2022-11-13T07:04:26.080Z,11.64
2022-11-13T07:07:12.102Z,11.57
2022-11-13T07:09:57.722Z,11.32
2022-11-13T07:12:43.535Z,11.11
2022-11-13T07:15:29.502Z,11.01
2022-11-13T07:18:19.001Z,11.25
2022-11-13T07:21:10.868Z,11.55
2022-11-13T07:23:56.889Z,11.37
2022-11-13T07:26:42.460Z,11.59
2022-11-13T07:29:28.395Z,11.80
2022-11-13T07:32:14.636Z,11.83
2022-11-13T07:35:00.695Z,11.83
2022-11-13T07:37:47.239Z,11.79
2022-11-13T07:40:32.889Z,11.71
2022-11-13T07:43:18.004Z,12.02
2022-11-13T07:46:03.868Z,11.94
2022-11-13T07:48:49.812Z,11.97
2022-11-13T07:51:35.989Z,11.72
2022-11-13T07:54:22.381Z,11.76
2022-11-13T07:57:08.221Z,11.78
2022-11-13T07:59:54.251Z,12.07
2022-11-13T08:02:40.012Z,12.16
2022-11-13T08:05:26.221Z,12.18
2022-11-13T08:08:13.789Z,12.12
2022-11-13T08:11:03.533Z,12.22
2022-11-13T08:13:49.292Z,12.39
2022-11-13T08:16:35.275Z,12.22
2022-11-13T08:19:21.138Z,12.20
2022-11-13T08:22:07.272Z,12.19
2022-11-13T08:24:53.987Z,12.34
2022-11-13T08:27:40.834Z,12.34
2022-11-13T08:30:28.528Z,12.25
2022-11-13T08:33:14.433Z,12.12
2022-11-13T08:36:00.478Z,12.20
2022-11-13T08:38:49.130Z,12.09
2022-11-13T08:41:37.129Z,12.16
2022-11-13T08:44:23.701Z,12.19
2022-11-13T08:47:09.357Z,12.12
2022-11-13T08:49:56.440Z,12.11
2022-11-13T08:52:42.528Z,12.01
2022-11-13T08:55:29.109Z,12.00
2022-11-13T08:58:14.911Z,11.90
2022-11-13T09:01:01.947Z,11.84
2022-11-13T09:03:49.797Z,11.79
2022-11-13T09:06:35.704Z,12.00
2022-11-13T09:09:22.844Z,12.14
2022-11-13T09:12:08.645Z,12.19
2022-11-13T09:14:55.965Z,12.20
2022-11-13T09:17:42.253Z,12.07
2022-11-13T09:20:29.873Z,12.17
2022-11-13T09:23:15.718Z,12.36
2022-11-13T09:26:03.334Z,12.30
2022-11-13T09:28:49.150Z,12.44
2022-11-13T09:31:35.106Z,12.40
2022-11-13T09:34:21.996Z,12.43
2022-11-13T09:37:07.871Z,12.11
2022-11-13T09:39:53.531Z,12.18
2022-11-13T09:42:42.086Z,12.34
2022-11-13T09:45:29.049Z,12.53
2022-11-13T09:48:36.124Z,12.69
2022-11-13T09:51:43.960Z,12.92
2022-11-13T09:54:29.647Z,12.73
2022-11-13T09:57:35.948Z,12.93
2022-11-13T10:00:23.027Z,12.95
2022-11-13T10:03:46.336Z,13.07
2022-11-13T10:06:40.728Z,12.99
2022-11-13T10:09:39.282Z,13.02
2022-11-13T10:12:30.627Z,12.95
2022-11-13T10:15:17.884Z,12.88
2022-11-13T10:18:14.420Z,12.65
2022-11-13T10:21:20.343Z,12.86
2022-11-13T10:24:14.582Z,13.13
2022-11-13T10:27:01.854Z,12.94
2022-11-13T10:29:49.302Z,13.02
2022-11-13T10:32:36.033Z,12.87
2022-11-13T10:35:42.406Z,12.67
2022-11-13T10:38:44.864Z,12.59
2022-11-13T10:41:32.262Z,12.35
2022-11-13T10:44:30.592Z,12.35
2022-11-13T10:47:42.333Z,12.36
2022-11-13T10:50:30.065Z,12.49
2022-11-13T10:53:18.153Z,12.39
2022-11-13T10:56:24.144Z,12.61
2022-11-13T10:59:13.605Z,12.55
2022-11-13T11:02:11.547Z,12.49
2022-11-13T11:05:28.898Z,12.47
2022-11-13T11:08:16.151Z,12.39
2022-11-13T11:11:26.914Z,12.32
2022-11-13T11:14:31.408Z,12.34
2022-11-13T11:17:19.960Z,12.23
2022-11-13T11:20:24.403Z,12.30
2022-11-13T11:23:31.746Z,12.06
2022-11-13T11:26:32.953Z,12.10
2022-11-13T11:29:50.160Z,12.41
2022-11-13T11:33:23.580Z,12.68
2022-11-13T11:36:12.268Z,12.63
2022-11-13T11:39:16.015Z,12.62
2022-11-13T11:42:01.884Z,12.73
2022-11-13T11:45:14.175Z,12.92
2022-11-13T11:48:05.271Z,12.93
2022-11-13T11:50:55.588Z,13.12
2022-11-13T11:54:00.234Z,13.06
2022-11-13T11:56:51.267Z,12.89
2022-11-13T11:59:40.060Z,12.88
2022-11-13T12:02:44.816Z,12.98
2022-11-13T12:05:45.924Z,12.84
2022-11-13T12:08:32.401Z,12.98
2022-11-13T12:11:32.112Z,12.89
2022-11-13T12:14:32.522Z,12.99
2022-11-13T12:17:29.830Z,12.87
2022-11-13T12:20:45.142Z,12.78
2022-11-13T12:23:36.822Z,12.79
2022-11-13T12:26:31.120Z,12.63
2022-11-13T12:29:47.830Z,12.79
2022-11-13T12:33:02.010Z,12.84
2022-11-13T12:35:51.641Z,12.66
2022-11-13T12:39:02.787Z,12.65
2022-11-13T12:42:02.634Z,12.96
2022-11-13T12:45:20.666Z,13.04
2022-11-13T12:48:29.185Z,13.09
2022-11-13T12:51:18.127Z,13.10
2022-11-13T12:54:04.406Z,13.23
2022-11-13T12:56:50.646Z,13.04
2022-11-13T12:59:41.625Z,12.90
2022-11-13T13:02:50.475Z,13.00
2022-11-13T13:06:21.125Z,12.86
2022-11-13T13:09:25.365Z,12.68
2022-11-13T13:12:48.569Z,12.74
2022-11-13T13:15:39.033Z,12.75
2022-11-13T13:18:28.951Z,12.61
2022-11-13T13:21:17.909Z,12.61
2022-11-13T13:24:27.976Z,12.53
2022-11-13T13:27:26.236Z,12.56
2022-11-13T13:30:19.886Z,12.62
2022-11-13T13:33:14.816Z,12.53
2022-11-13T13:36:22.572Z,12.55
2022-11-13T13:39:12.149Z,12.53
2022-11-13T13:42:33.250Z,12.57
2022-11-13T13:45:37.458Z,12.54
2022-11-13T13:48:27.797Z,12.58
2022-11-13T13:51:25.156Z,12.64
2022-11-13T13:54:20.336Z,12.68
2022-11-13T13:57:13.305Z,12.90
2022-11-13T13:59:59.282Z,12.87
2022-11-13T14:02:51.017Z,12.87
2022-11-13T14:05:38.328Z,13.03
2022-11-13T14:08:27.801Z,12.86
2022-11-13T14:11:22.774Z,12.76
2022-11-13T14:14:26.011Z,12.72
2022-11-13T14:17:12.899Z,12.65
2022-11-13T14:20:01.834Z,12.74
2022-11-13T14:22:55.397Z,12.64
2022-11-13T14:25:44.869Z,12.50
2022-11-13T14:28:34.093Z,12.51
2022-11-13T14:31:21.051Z,12.25
2022-11-13T14:34:18.303Z,12.32
2022-11-13T14:37:20.957Z,12.32
2022-11-13T14:40:21.733Z,12.44
2022-11-13T14:43:17.324Z,12.38
2022-11-13T14:46:06.987Z,12.41
2022-11-13T14:48:55.510Z,12.46
2022-11-13T14:51:41.609Z,12.51
2022-11-13T14:54:53.066Z,12.62
2022-11-13T14:57:47.898Z,12.72
2022-11-13T15:00:36.642Z,12.61
2022-11-13T15:03:23.351Z,12.53
2022-11-13T15:06:24.175Z,12.58
2022-11-13T15:09:17.497Z,12.67
2022-11-13T15:12:03.836Z,12.78
2022-11-13T15:14:51.231Z,12.91
2022-11-13T15:17:37.580Z,12.99
2022-11-13T15:20:27.786Z,13.02
2022-11-13T15:23:16.043Z,12.99
2022-11-13T15:26:01.542Z,12.89
2022-11-13T15:28:47.712Z,12.80
2022-11-13T15:31:36.998Z,12.65
2022-11-13T15:34:23.018Z,12.49
2022-11-13T15:37:17.240Z,12.53
2022-11-13T15:40:03.721Z,12.59
2022-11-13T15:42:49.702Z,12.35
2022-11-13T15:45:39.900Z,12.34
2022-11-13T15:48:28.675Z,12.10
2022-11-13T15:51:40.097Z,12.05
2022-11-13T15:54:32.225Z,11.97
2022-11-13T15:57:29.656Z,11.96
2022-11-13T16:00:25.370Z,11.80
2022-11-13T16:03:11.855Z,11.87
2022-11-13T16:06:01.369Z,11.94
2022-11-13T16:08:49.829Z,11.93
2022-11-13T16:11:35.643Z,11.92
2022-11-13T16:14:24.963Z,12.08
2022-11-13T16:17:14.576Z,12.13
2022-11-13T16:20:02.672Z,12.04
2022-11-13T16:22:49.131Z,12.04
2022-11-13T16:25:35.283Z,11.96
2022-11-13T16:28:21.983Z,11.99
2022-11-13T16:31:08.106Z,12.02
2022-11-13T16:33:54.467Z,12.05
2022-11-13T16:36:43.396Z,11.75
2022-11-13T16:39:35.479Z,11.74
2022-11-13T16:42:21.178Z,11.74
2022-11-13T16:45:07.522Z,11.61
2022-11-13T16:47:53.145Z,11.47
2022-11-13T16:50:39.910Z,11.44
2022-11-13T16:53:26.022Z,11.60
2022-11-13T16:56:29.296Z,11.58
2022-11-13T16:59:15.657Z,11.49
2022-11-13T17:02:01.464Z,11.29
2022-11-13T17:04:47.784Z,11.41
2022-11-13T17:07:34.144Z,11.58
2022-11-13T17:10:36.309Z,11.64
2022-11-13T17:13:21.854Z,11.63
2022-11-13T17:16:09.308Z,11.51
2022-11-13T17:18:56.219Z,11.47
2022-11-13T17:21:44.454Z,11.53
2022-11-13T17:24:30.896Z,11.71
2022-11-13T17:27:19.646Z,11.81
2022-11-13T17:30:06.241Z,11.80
2022-11-13T17:32:52.213Z,11.74
2022-11-13T17:35:38.217Z,11.56
2022-11-13T17:38:24.710Z,11.61
2022-11-13T17:41:13.539Z,11.62
2022-11-13T17:44:01.545Z,11.68
2022-11-13T17:46:48.491Z,11.79
2022-11-13T17:49:34.505Z,11.78
2022-11-13T17:52:20.426Z,11.57
2022-11-13T17:55:08.138Z,11.47
2022-11-13T17:57:54.124Z,11.43
2022-11-13T18:00:41.230Z,11.25
2022-11-13T18:03:27.664Z,11.25
2022-11-13T18:06:19.552Z,11.09
2022-11-13T18:09:06.766Z,10.85
2022-11-13T18:11:52.636Z,10.85
2022-11-13T18:14:38.669Z,10.82
2022-11-13T18:17:25.450Z,10.57
2022-11-13T18:20:11.566Z,10.52
2022-11-13T18:23:00.014Z,10.42
2022-11-13T18:25:46.703Z,10.40
2022-11-13T18:28:32.817Z,10.62
2022-11-13T18:31:20.340Z,10.58
2022-11-13T18:34:07.595Z,10.66
2022-11-13T18:36:53.644Z,10.60
2022-11-13T18:39:39.520Z,10.48
2022-11-13T18:42:25.921Z,10.49
2022-11-13T18:45:12.007Z,10.36
2022-11-13T18:47:58.012Z,10.21
2022-11-13T18:50:55.467Z,10.19
2022-11-13T18:53:43.951Z,10.18
2022-11-13T18:56:31.730Z,10.17
2022-11-13T18:59:17.830Z,10.44
2022-11-13T19:02:04.819Z,10.36
2022-11-13T19:04:50.748Z,10.35
2022-11-13T19:07:36.599Z,10.49
2022-11-13T19:10:22.529Z,10.47
2022-11-13T19:13:09.362Z,10.42
2022-11-13T19:15:55.900Z,10.29
2022-11-13T19:18:43.938Z,10.22
2022-11-13T19:21:34.299Z,10.35
2022-11-13T19:24:20.201Z,10.24
2022-11-13T19:27:06.438Z,10.12
2022-11-13T19:29:52.373Z,10.11
2022-11-13T19:32:37.984Z,10.08
2022-11-13T19:35:26.193Z,10.04
2022-11-13T19:38:12.479Z,10.03
2022-11-13T19:40:59.128Z,9.98
2022-11-13T19:43:50.993Z,9.99
2022-11-13T19:46:37.089Z,10.09
2022-11-13T19:49:22.978Z,10.14
2022-11-13T19:52:09.162Z,10.04
2022-11-13T19:54:55.584Z,9.96
2022-11-13T19:57:46.109Z,9.93
2022-11-13T20:00:33.255Z,9.93
2022-11-13T20:03:19.440Z,9.91
2022-11-13T20:06:06.091Z,9.88
2022-11-13T20:08:52.277Z,9.78
2022-11-13T20:11:39.092Z,9.84
2022-11-13T20:14:25.297Z,9.72
2022-11-13T20:17:11.055Z,9.61
2022-11-13T20:19:57.741Z,9.69
2022-11-13T20:22:43.715Z,9.71
2022-11-13T20:25:29.562Z,9.77
2022-11-13T20:28:15.969Z,9.71
2022-11-13T20:31:07.329Z,9.60
2022-11-13T20:33:56.333Z,9.61
2022-11-13T20:36:42.389Z,9.60
2022-11-13T20:39:28.096Z,9.63
2022-11-13T20:42:15.463Z,9.54
2022-11-13T20:45:01.667Z,9.42
2022-11-13T20:47:48.148Z,9.40
2022-11-13T20:50:36.688Z,9.38
2022-11-13T20:53:22.996Z,9.29
2022-11-13T20:56:09.661Z,9.26
2022-11-13T20:58:56.165Z,9.28
2022-11-13T21:01:41.972Z,9.20
2022-11-13T21:04:28.727Z,9.21
2022-11-13T21:07:14.897Z,9.25
2022-11-13T21:10:02.177Z,9.31
2022-11-13T21:12:48.775Z,9.25
2022-11-13T21:15:38.321Z,9.28
2022-11-13T21:18:24.650Z,9.26
2022-11-13T21:21:11.488Z,9.26
2022-11-13T21:23:59.545Z,9.28
2022-11-13T21:26:48.718Z,9.33
2022-11-13T21:29:34.722Z,9.23
2022-11-13T21:32:21.065Z,9.17
2022-11-13T21:35:06.804Z,9.20
2022-11-13T21:37:52.697Z,9.09
2022-11-13T21:40:39.440Z,8.95
2022-11-13T21:43:25.394Z,9.04
2022-11-13T21:46:12.714Z,9.03
2022-11-13T21:49:18.917Z,9.12
2022-11-13T21:52:04.792Z,9.41
2022-11-13T21:54:50.815Z,9.14
2022-11-13T21:57:37.019Z,9.12
2022-11-13T22:00:22.850Z,9.05
2022-11-13T22:03:08.701Z,8.97
2022-11-13T22:06:13.801Z,9.07
2022-11-13T22:09:02.532Z,9.02
2022-11-13T22:11:51.638Z,9.17
2022-11-13T22:14:37.917Z,9.17
2022-11-13T22:17:23.770Z,9.21
2022-11-13T22:20:12.959Z,9.08
2022-11-13T22:22:58.792Z,9.17
2022-11-13T22:25:45.188Z,9.22
2022-11-13T22:28:33.059Z,9.29
2022-11-13T22:31:28.365Z,9.20
2022-11-13T22:34:14.629Z,9.17
2022-11-13T22:37:00.674Z,9.25
2022-11-13T22:39:46.540Z,9.09
2022-11-13T22:42:32.608Z,9.04
2022-11-13T22:45:23.622Z,8.94
2022-11-13T22:48:11.074Z,8.99
2022-11-13T22:51:02.900Z,9.05
2022-11-13T22:53:56.919Z,9.00
2022-11-13T22:56:42.748Z,8.93
2022-11-13T22:59:28.873Z,8.98
2022-11-13T23:02:15.087Z,8.98
2022-11-13T23:05:00.857Z,8.91
2022-11-13T23:07:46.940Z,8.79
2022-11-13T23:10:32.860Z,8.90
2022-11-13T23:13:18.755Z,8.84
2022-11-13T23:16:04.867Z,8.79
2022-11-13T23:18:52.070Z,8.84
2022-11-13T23:21:38.028Z,8.92
2022-11-13T23:24:24.231Z,8.94
2022-11-13T23:27:10.563Z,8.85
2022-11-13T23:29:56.799Z,8.85
2022-11-13T23:32:42.799Z,8.94
2022-11-13T23:35:29.168Z,8.81
2022-11-13T23:38:15.033Z,8.77
2022-11-13T23:41:01.655Z,8.76
2022-11-13T23:46:54.883Z,8.79
2022-11-13T23:49:40.392Z,8.78
2022-11-13T23:52:26.568Z,8.87
2022-11-13T23:55:14.604Z,8.75
2022-11-13T23:58:02.430Z,8.79
